sensor_id;sensor_type;location;lat;lon;timestamp;pressure;altitude;pressure_sealevel;temperature;humidity
45050;BME280;61798;48.048;-1.928;2022-10-17T00:02:01;100376.88;;;13.41;100.00
45050;BME280;61798;48.048;-1.928;2022-10-17T00:04:07;100351.97;;;13.20;100.00
45050;BME280;61798;48.048;-1.928;2022-10-17T00:06:14;100391.19;;;13.41;100.00
45050;BME280;61798;48.048;-1.928;2022-10-17T00:08:20;100403.38;;;13.44;100.00
45050;BME280;61798;48.048;-1.928;2022-10-17T00:10:26;100382.53;;;13.32;100.00
45050;BME280;61798;48.048;-1.928;2022-10-17T00:12:32;100381.78;;;13.18;100.00
45050;BME280;61798;48.048;-1.928;2022-10-17T00:14:38;100398.28;;;13.29;100.00
45050;BME280;61798;48.048;-1.928;2022-10-17T00:16:44;100408.41;;;13.34;100.00
45050;BME280;61798;48.048;-1.928;2022-10-17T00:18:50;100420.41;;;13.31;100.00
45050;BME280;61798;48.048;-1.928;2022-10-17T00:20:56;100438.41;;;13.37;100.00
45050;BME280;61798;48.048;-1.928;2022-10-17T00:23:02;100464.56;;;13.56;100.00
45050;BME280;61798;48.048;-1.928;2022-10-17T00:25:08;100458.84;;;13.45;100.00
45050;BME280;61798;48.048;-1.928;2022-10-17T00:27:14;100456.16;;;13.45;100.00
45050;BME280;61798;48.048;-1.928;2022-10-17T00:29:20;100433.47;;;13.27;100.00
45050;BME280;61798;48.048;-1.928;2022-10-17T00:31:26;100458.81;;;13.52;100.00
45050;BME280;61798;48.048;-1.928;2022-10-17T00:33:34;100479.84;;;13.69;100.00
45050;BME280;61798;48.048;-1.928;2022-10-17T00:35:40;100475.94;;;13.58;100.00
45050;BME280;61798;48.048;-1.928;2022-10-17T00:37:46;100475.56;;;13.61;100.00
45050;BME280;61798;48.048;-1.928;2022-10-17T00:39:52;100449.13;;;13.44;100.00
45050;BME280;61798;48.048;-1.928;2022-10-17T00:41:58;100474.72;;;13.60;100.00
45050;BME280;61798;48.048;-1.928;2022-10-17T00:46:36;100468.53;;;13.53;100.00
45050;BME280;61798;48.048;-1.928;2022-10-17T00:48:42;100466.88;;;13.52;100.00
45050;BME280;61798;48.048;-1.928;2022-10-17T00:50:49;100454.72;;;13.42;100.00
45050;BME280;61798;48.048;-1.928;2022-10-17T00:52:58;100476.75;;;13.58;100.00
45050;BME280;61798;48.048;-1.928;2022-10-17T00:55:27;100485.66;;;13.66;100.00
45050;BME280;61798;48.048;-1.928;2022-10-17T00:57:35;100470.41;;;13.46;100.00
45050;BME280;61798;48.048;-1.928;2022-10-17T00:59:42;100497.94;;;13.61;100.00
45050;BME280;61798;48.048;-1.928;2022-10-17T01:01:59;100480.72;;;13.56;100.00
45050;BME280;61798;48.048;-1.928;2022-10-17T01:04:06;100488.19;;;13.53;100.00
45050;BME280;61798;48.048;-1.928;2022-10-17T01:06:12;100455.09;;;13.46;100.00
45050;BME280;61798;48.048;-1.928;2022-10-17T01:08:18;100462.53;;;13.51;100.00
45050;BME280;61798;48.048;-1.928;2022-10-17T01:10:30;100497.94;;;13.61;100.00
45050;BME280;61798;48.048;-1.928;2022-10-17T01:12:48;100477.66;;;13.52;100.00
45050;BME280;61798;48.048;-1.928;2022-10-17T01:27:19;100480.06;;;13.67;100.00
45050;BME280;61798;48.048;-1.928;2022-10-17T01:32:01;100490.63;;;13.69;100.00
45050;BME280;61798;48.048;-1.928;2022-10-17T01:34:21;100485.84;;;13.71;100.00
45050;BME280;61798;48.048;-1.928;2022-10-17T01:39:02;100479.78;;;13.76;100.00
45050;BME280;61798;48.048;-1.928;2022-10-17T01:41:36;100471.72;;;13.76;100.00
45050;BME280;61798;48.048;-1.928;2022-10-17T01:43:50;100456.66;;;13.68;100.00
45050;BME280;61798;48.048;-1.928;2022-10-17T01:46:02;100473.19;;;13.71;100.00
45050;BME280;61798;48.048;-1.928;2022-10-17T01:48:18;100466.59;;;13.67;100.00
45050;BME280;61798;48.048;-1.928;2022-10-17T01:50:49;100472.63;;;13.62;100.00
45050;BME280;61798;48.048;-1.928;2022-10-17T01:53:01;100477.38;;;13.67;100.00
45050;BME280;61798;48.048;-1.928;2022-10-17T01:55:29;100490.13;;;13.79;100.00
45050;BME280;61798;48.048;-1.928;2022-10-17T01:57:58;100487.66;;;13.77;100.00
45050;BME280;61798;48.048;-1.928;2022-10-17T02:00:09;100465.38;;;13.63;100.00
45050;BME280;61798;48.048;-1.928;2022-10-17T02:02:16;100481.84;;;13.80;100.00
45050;BME280;61798;48.048;-1.928;2022-10-17T02:04:24;100500.44;;;13.89;100.00
45050;BME280;61798;48.048;-1.928;2022-10-17T02:06:34;100500.75;;;13.99;100.00
45050;BME280;61798;48.048;-1.928;2022-10-17T02:08:44;100503.66;;;13.98;100.00
45050;BME280;61798;48.048;-1.928;2022-10-17T02:11:03;100491.91;;;13.92;100.00
45050;BME280;61798;48.048;-1.928;2022-10-17T02:15:44;100505.94;;;14.01;100.00
45050;BME280;61798;48.048;-1.928;2022-10-17T02:18:00;100477.53;;;13.98;100.00
45050;BME280;61798;48.048;-1.928;2022-10-17T02:20:23;100506.44;;;14.16;100.00
45050;BME280;61798;48.048;-1.928;2022-10-17T02:22:48;100486.19;;;14.07;100.00
45050;BME280;61798;48.048;-1.928;2022-10-17T02:25:05;100491.94;;;14.11;100.00
45050;BME280;61798;48.048;-1.928;2022-10-17T02:29:51;100489.50;;;14.09;100.00
45050;BME280;61798;48.048;-1.928;2022-10-17T02:32:23;100483.28;;;14.09;100.00
45050;BME280;61798;48.048;-1.928;2022-10-17T02:34:43;100496.84;;;14.21;100.00
45050;BME280;61798;48.048;-1.928;2022-10-17T02:36:53;100490.47;;;14.15;100.00
45050;BME280;61798;48.048;-1.928;2022-10-17T02:39:02;100475.03;;;14.03;100.00
45050;BME280;61798;48.048;-1.928;2022-10-17T02:41:11;100491.13;;;14.10;100.00
45050;BME280;61798;48.048;-1.928;2022-10-17T02:43:21;100485.72;;;14.10;100.00
45050;BME280;61798;48.048;-1.928;2022-10-17T02:45:28;100496.03;;;14.20;100.00
45050;BME280;61798;48.048;-1.928;2022-10-17T02:48:03;100473.38;;;14.02;100.00
45050;BME280;61798;48.048;-1.928;2022-10-17T02:50:10;100475.47;;;14.00;100.00
45050;BME280;61798;48.048;-1.928;2022-10-17T02:55:29;100485.16;;;14.08;100.00
45050;BME280;61798;48.048;-1.928;2022-10-17T02:57:22;100486.38;;;14.05;100.00
45050;BME280;61798;48.048;-1.928;2022-10-17T02:59:32;100510.53;;;14.19;100.00
45050;BME280;61798;48.048;-1.928;2022-10-17T03:01:40;100498.56;;;14.15;100.00
45050;BME280;61798;48.048;-1.928;2022-10-17T03:03:46;100488.06;;;14.06;100.00
45050;BME280;61798;48.048;-1.928;2022-10-17T03:05:52;100512.66;;;14.17;100.00
45050;BME280;61798;48.048;-1.928;2022-10-17T03:07:59;100519.91;;;14.16;100.00
45050;BME280;61798;48.048;-1.928;2022-10-17T03:10:05;100526.72;;;14.19;100.00
45050;BME280;61798;48.048;-1.928;2022-10-17T03:12:11;100499.88;;;14.05;100.00
45050;BME280;61798;48.048;-1.928;2022-10-17T03:14:17;100517.22;;;14.16;100.00
45050;BME280;61798;48.048;-1.928;2022-10-17T03:16:23;100480.50;;;13.90;100.00
45050;BME280;61798;48.048;-1.928;2022-10-17T03:18:29;100491.25;;;13.97;100.00
45050;BME280;61798;48.048;-1.928;2022-10-17T03:20:35;100497.03;;;14.00;100.00
45050;BME280;61798;48.048;-1.928;2022-10-17T03:22:41;100502.56;;;14.05;100.00
45050;BME280;61798;48.048;-1.928;2022-10-17T03:24:47;100537.88;;;14.23;100.00
45050;BME280;61798;48.048;-1.928;2022-10-17T03:26:53;100506.16;;;13.99;100.00
45050;BME280;61798;48.048;-1.928;2022-10-17T03:28:58;100527.16;;;14.16;100.00
45050;BME280;61798;48.048;-1.928;2022-10-17T03:31:09;100546.59;;;14.25;100.00
45050;BME280;61798;48.048;-1.928;2022-10-17T03:33:15;100530.44;;;14.18;100.00
45050;BME280;61798;48.048;-1.928;2022-10-17T03:35:21;100515.81;;;14.07;100.00
45050;BME280;61798;48.048;-1.928;2022-10-17T03:37:27;100550.31;;;14.24;100.00
45050;BME280;61798;48.048;-1.928;2022-10-17T03:39:33;100522.25;;;14.06;100.00
45050;BME280;61798;48.048;-1.928;2022-10-17T03:41:39;100528.47;;;14.06;100.00
45050;BME280;61798;48.048;-1.928;2022-10-17T03:43:45;100515.25;;;13.98;100.00
45050;BME280;61798;48.048;-1.928;2022-10-17T03:45:51;100542.28;;;14.17;100.00
45050;BME280;61798;48.048;-1.928;2022-10-17T03:48:00;100548.06;;;14.21;100.00
45050;BME280;61798;48.048;-1.928;2022-10-17T03:50:06;100516.31;;;13.97;100.00
45050;BME280;61798;48.048;-1.928;2022-10-17T03:52:12;100543.38;;;14.09;100.00
45050;BME280;61798;48.048;-1.928;2022-10-17T03:54:18;100515.97;;;13.87;100.00
45050;BME280;61798;48.048;-1.928;2022-10-17T03:56:24;100565.72;;;14.16;100.00
45050;BME280;61798;48.048;-1.928;2022-10-17T03:58:30;100558.28;;;14.12;100.00
45050;BME280;61798;48.048;-1.928;2022-10-17T04:00:36;100550.06;;;14.00;100.00
45050;BME280;61798;48.048;-1.928;2022-10-17T04:02:42;100538.53;;;13.92;100.00
45050;BME280;61798;48.048;-1.928;2022-10-17T04:04:49;100550.94;;;13.93;100.00
45050;BME280;61798;48.048;-1.928;2022-10-17T04:06:55;100571.13;;;14.10;100.00
45050;BME280;61798;48.048;-1.928;2022-10-17T04:09:02;100548.88;;;13.95;100.00
45050;BME280;61798;48.048;-1.928;2022-10-17T04:11:13;100556.28;;;14.00;100.00
45050;BME280;61798;48.048;-1.928;2022-10-17T04:13:19;100576.09;;;14.13;100.00
45050;BME280;61798;48.048;-1.928;2022-10-17T04:15:25;100543.53;;;13.89;100.00
45050;BME280;61798;48.048;-1.928;2022-10-17T04:17:31;100572.66;;;13.99;100.00
45050;BME280;61798;48.048;-1.928;2022-10-17T04:19:37;100583.56;;;14.11;100.00
45050;BME280;61798;48.048;-1.928;2022-10-17T04:21:43;100548.69;;;13.90;100.00
45050;BME280;61798;48.048;-1.928;2022-10-17T04:23:55;100577.78;;;14.07;100.00
45050;BME280;61798;48.048;-1.928;2022-10-17T04:26:02;100597.22;;;14.16;100.00
45050;BME280;61798;48.048;-1.928;2022-10-17T04:28:08;100600.34;;;14.13;100.00
45050;BME280;61798;48.048;-1.928;2022-10-17T04:30:15;100600.94;;;14.15;100.00
45050;BME280;61798;48.048;-1.928;2022-10-17T04:32:21;100560.72;;;13.88;100.00
45050;BME280;61798;48.048;-1.928;2022-10-17T04:34:27;100582.78;;;14.03;100.00
45050;BME280;61798;48.048;-1.928;2022-10-17T04:36:33;100593.13;;;14.06;100.00
45050;BME280;61798;48.048;-1.928;2022-10-17T04:38:39;100602.22;;;14.12;100.00
45050;BME280;61798;48.048;-1.928;2022-10-17T04:40:45;100601.22;;;14.06;100.00
45050;BME280;61798;48.048;-1.928;2022-10-17T04:42:51;100603.47;;;14.10;100.00
45050;BME280;61798;48.048;-1.928;2022-10-17T04:44:57;100565.91;;;13.89;100.00
45050;BME280;61798;48.048;-1.928;2022-10-17T04:47:03;100587.84;;;13.93;100.00
45050;BME280;61798;48.048;-1.928;2022-10-17T04:49:09;100611.41;;;14.04;100.00
45050;BME280;61798;48.048;-1.928;2022-10-17T04:51:17;100605.63;;;14.01;100.00
45050;BME280;61798;48.048;-1.928;2022-10-17T04:53:24;100622.59;;;14.01;100.00
45050;BME280;61798;48.048;-1.928;2022-10-17T04:55:30;100639.56;;;14.09;100.00
45050;BME280;61798;48.048;-1.928;2022-10-17T04:57:36;100636.28;;;14.00;100.00
45050;BME280;61798;48.048;-1.928;2022-10-17T04:59:42;100614.41;;;13.82;100.00
45050;BME280;61798;48.048;-1.928;2022-10-17T05:01:48;100609.81;;;13.90;100.00
45050;BME280;61798;48.048;-1.928;2022-10-17T05:03:54;100631.94;;;13.99;100.00
45050;BME280;61798;48.048;-1.928;2022-10-17T05:06:05;100637.06;;;14.07;100.00
45050;BME280;61798;48.048;-1.928;2022-10-17T05:08:12;100650.59;;;14.00;100.00
45050;BME280;61798;48.048;-1.928;2022-10-17T05:10:18;100631.97;;;13.92;100.00
45050;BME280;61798;48.048;-1.928;2022-10-17T05:12:24;100659.91;;;14.04;100.00
45050;BME280;61798;48.048;-1.928;2022-10-17T05:14:30;100627.72;;;13.77;100.00
45050;BME280;61798;48.048;-1.928;2022-10-17T05:16:37;100659.50;;;14.01;100.00
45050;BME280;61798;48.048;-1.928;2022-10-17T05:18:43;100671.94;;;13.95;100.00
45050;BME280;61798;48.048;-1.928;2022-10-17T05:20:49;100679.59;;;13.98;100.00
45050;BME280;61798;48.048;-1.928;2022-10-17T05:22:57;100690.38;;;13.98;100.00
45050;BME280;61798;48.048;-1.928;2022-10-17T05:25:04;100670.53;;;13.85;100.00
45050;BME280;61798;48.048;-1.928;2022-10-17T05:27:10;100648.44;;;13.70;100.00
45050;BME280;61798;48.048;-1.928;2022-10-17T05:29:16;100636.66;;;13.64;100.00
45050;BME280;61798;48.048;-1.928;2022-10-17T05:31:22;100679.25;;;13.88;100.00
45050;BME280;61798;48.048;-1.928;2022-10-17T05:33:28;100648.03;;;13.66;100.00
45050;BME280;61798;48.048;-1.928;2022-10-17T05:35:34;100685.22;;;13.90;100.00
45050;BME280;61798;48.048;-1.928;2022-10-17T05:37:40;100688.41;;;13.80;100.00
45050;BME280;61798;48.048;-1.928;2022-10-17T05:39:46;100666.28;;;13.64;100.00
45050;BME280;61798;48.048;-1.928;2022-10-17T05:41:52;100666.28;;;13.57;100.00
45050;BME280;61798;48.048;-1.928;2022-10-17T05:43:59;100703.97;;;13.71;100.00
45050;BME280;61798;48.048;-1.928;2022-10-17T05:46:05;100676.22;;;13.50;100.00
45050;BME280;61798;48.048;-1.928;2022-10-17T05:48:12;100687.84;;;13.57;100.00
45050;BME280;61798;48.048;-1.928;2022-10-17T05:50:20;100733.78;;;13.76;100.00
45050;BME280;61798;48.048;-1.928;2022-10-17T05:52:27;100734.59;;;13.70;100.00
45050;BME280;61798;48.048;-1.928;2022-10-17T05:54:34;100728.19;;;13.71;100.00
45050;BME280;61798;48.048;-1.928;2022-10-17T05:56:40;100713.28;;;13.54;100.00
45050;BME280;61798;48.048;-1.928;2022-10-17T05:58:47;100738.75;;;13.66;100.00
45050;BME280;61798;48.048;-1.928;2022-10-17T06:01:05;100747.06;;;13.64;100.00
45050;BME280;61798;48.048;-1.928;2022-10-17T06:03:12;100746.00;;;13.58;100.00
45050;BME280;61798;48.048;-1.928;2022-10-17T06:05:21;100745.41;;;13.56;100.00
45050;BME280;61798;48.048;-1.928;2022-10-17T06:07:28;100755.34;;;13.56;100.00
45050;BME280;61798;48.048;-1.928;2022-10-17T06:09:35;100766.72;;;13.58;100.00
45050;BME280;61798;48.048;-1.928;2022-10-17T06:11:42;100726.38;;;13.30;100.00
45050;BME280;61798;48.048;-1.928;2022-10-17T06:13:49;100771.09;;;13.52;100.00
45050;BME280;61798;48.048;-1.928;2022-10-17T06:15:57;100779.78;;;13.54;100.00
45050;BME280;61798;48.048;-1.928;2022-10-17T06:18:04;100776.06;;;13.48;100.00
45050;BME280;61798;48.048;-1.928;2022-10-17T06:20:11;100791.78;;;13.58;100.00
45050;BME280;61798;48.048;-1.928;2022-10-17T06:22:18;100763.66;;;13.40;100.00
45050;BME280;61798;48.048;-1.928;2022-10-17T06:24:26;100770.88;;;13.47;100.00
45050;BME280;61798;48.048;-1.928;2022-10-17T06:26:33;100758.88;;;13.42;100.00
45050;BME280;61798;48.048;-1.928;2022-10-17T06:28:40;100776.47;;;13.38;100.00
45050;BME280;61798;48.048;-1.928;2022-10-17T06:30:47;100762.84;;;13.33;100.00
45050;BME280;61798;48.048;-1.928;2022-10-17T06:32:53;100794.69;;;13.50;100.00
45050;BME280;61798;48.048;-1.928;2022-10-17T06:34:59;100783.53;;;13.39;100.00
45050;BME280;61798;48.048;-1.928;2022-10-17T06:37:05;100772.94;;;13.38;100.00
45050;BME280;61798;48.048;-1.928;2022-10-17T06:39:11;100801.53;;;13.59;100.00
45050;BME280;61798;48.048;-1.928;2022-10-17T06:41:17;100787.66;;;13.35;100.00
45050;BME280;61798;48.048;-1.928;2022-10-17T06:43:26;100824.94;;;13.52;100.00
45050;BME280;61798;48.048;-1.928;2022-10-17T06:45:32;100791.81;;;13.31;100.00
45050;BME280;61798;48.048;-1.928;2022-10-17T06:47:38;100787.69;;;13.28;100.00
45050;BME280;61798;48.048;-1.928;2022-10-17T06:49:44;100807.13;;;13.44;100.00
45050;BME280;61798;48.048;-1.928;2022-10-17T06:51:50;100768.19;;;13.26;100.00
45050;BME280;61798;48.048;-1.928;2022-10-17T06:53:57;100801.13;;;13.49;100.00
45050;BME280;61798;48.048;-1.928;2022-10-17T06:56:04;100769.25;;;13.32;100.00
45050;BME280;61798;48.048;-1.928;2022-10-17T06:58:11;100797.19;;;13.45;100.00
45050;BME280;61798;48.048;-1.928;2022-10-17T07:00:17;100798.66;;;13.40;100.00
45050;BME280;61798;48.048;-1.928;2022-10-17T07:02:23;100805.88;;;13.40;100.00
45050;BME280;61798;48.048;-1.928;2022-10-17T07:04:29;100804.63;;;13.42;100.00
45050;BME280;61798;48.048;-1.928;2022-10-17T07:06:35;100835.91;;;13.50;100.00
45050;BME280;61798;48.048;-1.928;2022-10-17T07:08:43;100825.16;;;13.43;100.00
45050;BME280;61798;48.048;-1.928;2022-10-17T07:10:49;100804.44;;;13.37;100.00
45050;BME280;61798;48.048;-1.928;2022-10-17T07:12:56;100837.38;;;13.53;100.00
45050;BME280;61798;48.048;-1.928;2022-10-17T07:15:03;100863.88;;;13.56;100.00
45050;BME280;61798;48.048;-1.928;2022-10-17T07:17:09;100865.53;;;13.57;100.00
45050;BME280;61798;48.048;-1.928;2022-10-17T07:19:17;100857.84;;;13.47;100.00
45050;BME280;61798;48.048;-1.928;2022-10-17T07:21:23;100847.72;;;13.42;100.00
45050;BME280;61798;48.048;-1.928;2022-10-17T07:23:29;100851.88;;;13.45;100.00
45050;BME280;61798;48.048;-1.928;2022-10-17T07:25:35;100869.25;;;13.49;100.00
45050;BME280;61798;48.048;-1.928;2022-10-17T07:27:41;100889.97;;;13.62;100.00
45050;BME280;61798;48.048;-1.928;2022-10-17T07:29:47;100881.25;;;13.53;100.00
45050;BME280;61798;48.048;-1.928;2022-10-17T07:31:53;100881.47;;;13.52;100.00
45050;BME280;61798;48.048;-1.928;2022-10-17T07:33:59;100892.47;;;13.57;100.00
45050;BME280;61798;48.048;-1.928;2022-10-17T07:36:05;100868.22;;;13.37;100.00
45050;BME280;61798;48.048;-1.928;2022-10-17T07:38:11;100919.81;;;13.68;100.00
45050;BME280;61798;48.048;-1.928;2022-10-17T07:40:18;100906.38;;;13.61;100.00
45050;BME280;61798;48.048;-1.928;2022-10-17T07:42:23;100905.09;;;13.57;100.00
45050;BME280;61798;48.048;-1.928;2022-10-17T07:44:29;100922.94;;;13.64;100.00
45050;BME280;61798;48.048;-1.928;2022-10-17T07:46:35;100919.41;;;13.71;100.00
45050;BME280;61798;48.048;-1.928;2022-10-17T07:48:41;100890.34;;;13.46;100.00
45050;BME280;61798;48.048;-1.928;2022-10-17T07:50:48;100919.41;;;13.64;100.00
45050;BME280;61798;48.048;-1.928;2022-10-17T07:52:54;100944.88;;;13.75;100.00
45050;BME280;61798;48.048;-1.928;2022-10-17T07:55:00;100942.63;;;13.72;100.00
45050;BME280;61798;48.048;-1.928;2022-10-17T07:57:06;100954.03;;;13.81;100.00
45050;BME280;61798;48.048;-1.928;2022-10-17T07:59:12;100889.75;;;13.43;100.00
45050;BME280;61798;48.048;-1.928;2022-10-17T08:01:18;100948.00;;;13.85;100.00
45050;BME280;61798;48.048;-1.928;2022-10-17T08:03:24;100954.22;;;13.93;100.00
45050;BME280;61798;48.048;-1.928;2022-10-17T08:05:30;100956.50;;;14.03;100.00
45050;BME280;61798;48.048;-1.928;2022-10-17T08:07:36;100929.97;;;13.93;100.00
45050;BME280;61798;48.048;-1.928;2022-10-17T08:09:43;100946.09;;;14.13;100.00
45050;BME280;61798;48.048;-1.928;2022-10-17T08:11:49;100950.69;;;14.06;100.00
45050;BME280;61798;48.048;-1.928;2022-10-17T08:13:55;100970.78;;;14.17;100.00
45050;BME280;61798;48.048;-1.928;2022-10-17T08:16:03;100975.34;;;14.16;100.00
45050;BME280;61798;48.048;-1.928;2022-10-17T08:18:09;100971.84;;;14.09;99.52
45050;BME280;61798;48.048;-1.928;2022-10-17T08:20:15;100990.88;;;14.21;99.65
45050;BME280;61798;48.048;-1.928;2022-10-17T08:22:21;100971.81;;;14.02;99.66
45050;BME280;61798;48.048;-1.928;2022-10-17T08:24:27;100988.41;;;14.13;99.54
45050;BME280;61798;48.048;-1.928;2022-10-17T08:26:33;100972.03;;;14.01;99.53
45050;BME280;61798;48.048;-1.928;2022-10-17T08:28:39;100964.16;;;13.99;99.87
45050;BME280;61798;48.048;-1.928;2022-10-17T08:30:45;100994.84;;;14.12;99.68
45050;BME280;61798;48.048;-1.928;2022-10-17T08:32:51;101016.38;;;14.19;99.69
45050;BME280;61798;48.048;-1.928;2022-10-17T08:34:57;101033.78;;;14.30;99.67
45050;BME280;61798;48.048;-1.928;2022-10-17T08:37:03;101028.81;;;14.26;99.71
45050;BME280;61798;48.048;-1.928;2022-10-17T08:39:09;101039.00;;;14.31;99.47
45050;BME280;61798;48.048;-1.928;2022-10-17T08:46:09;101034.19;;;14.33;99.32
45050;BME280;61798;48.048;-1.928;2022-10-17T08:48:19;101037.13;;;14.32;99.04
45050;BME280;61798;48.048;-1.928;2022-10-17T08:53:18;101049.13;;;14.49;99.03
45050;BME280;61798;48.048;-1.928;2022-10-17T08:55:36;101045.41;;;14.51;97.96
45050;BME280;61798;48.048;-1.928;2022-10-17T08:57:43;101039.59;;;14.47;97.83
45050;BME280;61798;48.048;-1.928;2022-10-17T08:59:51;101047.44;;;14.62;98.75
45050;BME280;61798;48.048;-1.928;2022-10-17T09:06:26;101044.56;;;14.57;97.86
45050;BME280;61798;48.048;-1.928;2022-10-17T09:09:00;101047.84;;;14.66;97.71
45050;BME280;61798;48.048;-1.928;2022-10-17T09:14:16;101045.34;;;14.92;97.78
45050;BME280;61798;48.048;-1.928;2022-10-17T09:18:57;101043.25;;;14.94;96.94
45050;BME280;61798;48.048;-1.928;2022-10-17T09:21:16;101046.53;;;15.16;96.95
45050;BME280;61798;48.048;-1.928;2022-10-17T09:23:31;101029.09;;;15.05;96.36
45050;BME280;61798;48.048;-1.928;2022-10-17T09:25:54;101041.53;;;15.13;96.34
45050;BME280;61798;48.048;-1.928;2022-10-17T09:28:11;101056.47;;;15.16;96.34
45050;BME280;61798;48.048;-1.928;2022-10-17T09:30:39;101060.19;;;15.21;96.02
45050;BME280;61798;48.048;-1.928;2022-10-17T09:32:52;101012.50;;;15.08;96.86
45050;BME280;61798;48.048;-1.928;2022-10-17T09:34:58;101051.00;;;15.29;95.95
45050;BME280;61798;48.048;-1.928;2022-10-17T09:37:11;101069.50;;;15.26;95.53
45050;BME280;61798;48.048;-1.928;2022-10-17T09:39:19;101047.16;;;15.11;96.08
45050;BME280;61798;48.048;-1.928;2022-10-17T09:41:38;101073.03;;;15.26;95.59
45050;BME280;61798;48.048;-1.928;2022-10-17T09:43:45;101065.63;;;15.15;96.40
45050;BME280;61798;48.048;-1.928;2022-10-17T09:46:07;101058.16;;;15.10;96.64
45050;BME280;61798;48.048;-1.928;2022-10-17T09:48:23;101085.31;;;15.22;96.88
45050;BME280;61798;48.048;-1.928;2022-10-17T09:50:33;101076.44;;;15.08;97.03
45050;BME280;61798;48.048;-1.928;2022-10-17T09:52:41;101090.50;;;15.17;96.76
45050;BME280;61798;48.048;-1.928;2022-10-17T09:54:58;101079.47;;;15.25;96.69
45050;BME280;61798;48.048;-1.928;2022-10-17T09:57:08;101108.66;;;15.49;96.25
45050;BME280;61798;48.048;-1.928;2022-10-17T09:59:29;101114.50;;;15.46;95.48
45050;BME280;61798;48.048;-1.928;2022-10-17T10:01:35;101084.44;;;15.35;95.68
45050;BME280;61798;48.048;-1.928;2022-10-17T10:03:41;101090.19;;;15.46;95.65
45050;BME280;61798;48.048;-1.928;2022-10-17T10:06:11;101109.22;;;15.64;95.66
45050;BME280;61798;48.048;-1.928;2022-10-17T10:08:18;101101.13;;;15.64;95.48
45050;BME280;61798;48.048;-1.928;2022-10-17T10:10:26;101086.84;;;15.50;94.90
45050;BME280;61798;48.048;-1.928;2022-10-17T10:12:36;101118.56;;;15.69;94.70
45050;BME280;61798;48.048;-1.928;2022-10-17T10:14:42;101080.41;;;15.51;94.46
45050;BME280;61798;48.048;-1.928;2022-10-17T10:16:50;101088.63;;;15.70;94.71
45050;BME280;61798;48.048;-1.928;2022-10-17T10:18:58;101090.28;;;15.71;93.62
45050;BME280;61798;48.048;-1.928;2022-10-17T10:21:08;101124.59;;;16.10;94.37
45050;BME280;61798;48.048;-1.928;2022-10-17T10:23:16;101127.88;;;16.19;94.27
45050;BME280;61798;48.048;-1.928;2022-10-17T10:25:23;101098.88;;;15.94;93.83
45050;BME280;61798;48.048;-1.928;2022-10-17T10:27:29;101109.47;;;15.95;93.46
45050;BME280;61798;48.048;-1.928;2022-10-17T10:29:53;101092.03;;;15.91;92.74
45050;BME280;61798;48.048;-1.928;2022-10-17T10:34:29;101107.19;;;16.32;93.19
45050;BME280;61798;48.048;-1.928;2022-10-17T10:37:02;101119.75;;;16.45;91.93
45050;BME280;61798;48.048;-1.928;2022-10-17T10:39:42;101106.41;;;16.50;92.97
45050;BME280;61798;48.048;-1.928;2022-10-17T10:41:47;101130.16;;;16.48;91.34
45050;BME280;61798;48.048;-1.928;2022-10-17T10:43:53;101120.59;;;16.45;92.13
45050;BME280;61798;48.048;-1.928;2022-10-17T10:46:04;101122.84;;;16.48;91.94
45050;BME280;61798;48.048;-1.928;2022-10-17T10:48:23;101135.16;;;16.70;91.48
45050;BME280;61798;48.048;-1.928;2022-10-17T10:50:39;101143.66;;;16.74;91.04
45050;BME280;61798;48.048;-1.928;2022-10-17T10:56:24;101133.22;;;16.77;90.85
45050;BME280;61798;48.048;-1.928;2022-10-17T11:00:43;101150.59;;;16.88;90.80
45050;BME280;61798;48.048;-1.928;2022-10-17T11:03:07;101150.47;;;17.02;90.36
45050;BME280;61798;48.048;-1.928;2022-10-17T11:05:21;101127.38;;;16.99;90.37
45050;BME280;61798;48.048;-1.928;2022-10-17T11:07:35;101162.22;;;17.15;89.95
45050;BME280;61798;48.048;-1.928;2022-10-17T11:09:51;101149.13;;;17.11;90.22
45050;BME280;61798;48.048;-1.928;2022-10-17T11:12:20;101153.75;;;17.30;90.08
45050;BME280;61798;48.048;-1.928;2022-10-17T11:14:42;101148.16;;;17.25;90.51
45050;BME280;61798;48.048;-1.928;2022-10-17T11:19:23;101165.03;;;17.27;89.01
45050;BME280;61798;48.048;-1.928;2022-10-17T11:21:36;101170.09;;;17.23;88.92
45050;BME280;61798;48.048;-1.928;2022-10-17T11:26:00;101164.50;;;17.37;88.33
45050;BME280;61798;48.048;-1.928;2022-10-17T11:28:13;101182.03;;;17.53;88.94
45050;BME280;61798;48.048;-1.928;2022-10-17T11:30:23;101162.25;;;17.33;88.23
45050;BME280;61798;48.048;-1.928;2022-10-17T11:32:52;101168.88;;;17.38;88.42
45050;BME280;61798;48.048;-1.928;2022-10-17T11:35:22;101178.59;;;17.20;88.42
45050;BME280;61798;48.048;-1.928;2022-10-17T11:37:39;101163.97;;;17.28;88.16
45050;BME280;61798;48.048;-1.928;2022-10-17T11:40:02;101184.97;;;17.32;86.74
45050;BME280;61798;48.048;-1.928;2022-10-17T11:42:26;101160.88;;;17.24;87.52
45050;BME280;61798;48.048;-1.928;2022-10-17T11:44:35;101168.94;;;17.31;86.79
45050;BME280;61798;48.048;-1.928;2022-10-17T11:46:43;101173.16;;;17.46;86.88
45050;BME280;61798;48.048;-1.928;2022-10-17T11:51:13;101162.84;;;17.54;86.83
45050;BME280;61798;48.048;-1.928;2022-10-17T11:53:23;101170.56;;;17.70;86.58
45050;BME280;61798;48.048;-1.928;2022-10-17T11:55:30;101171.03;;;17.67;85.84
45050;BME280;61798;48.048;-1.928;2022-10-17T11:57:51;101178.03;;;17.74;86.16
45050;BME280;61798;48.048;-1.928;2022-10-17T12:02:36;101175.16;;;17.69;86.14
45050;BME280;61798;48.048;-1.928;2022-10-17T12:04:59;101178.72;;;17.70;86.25
45050;BME280;61798;48.048;-1.928;2022-10-17T12:12:01;101174.19;;;17.82;85.98